createdAt,value
2018-04-10T00:00:17.122Z,15.73
2018-04-10T00:01:17.146Z,15.7
2018-04-10T00:02:17.249Z,15.66
2018-04-10T00:03:17.130Z,15.62
2018-04-10T00:04:17.117Z,15.62
2018-04-10T00:05:17.170Z,15.59
2018-04-10T00:06:17.184Z,15.53
2018-04-10T00:07:17.172Z,15.52
2018-04-10T00:08:17.161Z,15.46
2018-04-10T00:09:17.154Z,15.43
2018-04-10T00:10:17.135Z,15.42
2018-04-10T00:11:17.145Z,15.39
2018-04-10T00:12:17.172Z,15.38
2018-04-10T00:13:17.156Z,15.36
2018-04-10T00:14:17.166Z,15.35
2018-04-10T00:15:17.161Z,15.34
2018-04-10T00:16:17.172Z,15.31
2018-04-10T00:17:17.260Z,15.28
2018-04-10T00:18:17.169Z,15.28
2018-04-10T00:19:17.192Z,15.25
2018-04-10T00:20:17.193Z,15.25
2018-04-10T00:21:17.180Z,15.23
2018-04-10T00:22:17.266Z,15.25
2018-04-10T00:23:17.186Z,15.21
2018-04-10T00:24:17.185Z,15.18
2018-04-10T00:25:17.210Z,15.18
2018-04-10T00:26:17.194Z,15.21
2018-04-10T00:27:17.228Z,15.15
2018-04-10T00:28:17.222Z,15.15
2018-04-10T00:29:17.206Z,15.12
2018-04-10T00:30:17.197Z,15.12
2018-04-10T00:31:17.241Z,15.11
2018-04-10T00:32:17.235Z,15.08
2018-04-10T00:33:17.218Z,15.05
2018-04-10T00:34:17.346Z,15.04
2018-04-10T00:35:17.213Z,15.02
2018-04-10T00:36:17.229Z,15.01
2018-04-10T00:37:17.275Z,14.97
2018-04-10T00:38:17.249Z,14.95
2018-04-10T00:39:17.239Z,14.95
2018-04-10T00:40:17.244Z,14.94
2018-04-10T00:41:17.278Z,14.92
2018-04-10T00:42:17.273Z,14.94
2018-04-10T00:43:17.248Z,14.92
2018-04-10T00:44:17.310Z,14.94
2018-04-10T00:45:17.259Z,14.9
2018-04-10T00:46:17.254Z,14.87
2018-04-10T00:47:17.292Z,14.84
2018-04-10T00:48:17.271Z,14.8
2018-04-10T00:49:17.262Z,14.81
2018-04-10T00:50:17.271Z,14.8
2018-04-10T00:51:17.268Z,14.79
2018-04-10T00:52:17.276Z,14.79
2018-04-10T00:53:17.278Z,14.76
2018-04-10T00:54:17.277Z,14.74
2018-04-10T00:55:17.276Z,14.77
2018-04-10T00:56:17.287Z,14.76
2018-04-10T00:57:17.308Z,14.74
2018-04-10T00:58:17.304Z,14.69
2018-04-10T00:59:17.310Z,14.62
2018-04-10T01:00:17.301Z,14.6
2018-04-10T01:01:17.301Z,14.63
2018-04-10T01:02:17.298Z,14.6
2018-04-10T01:03:17.307Z,14.62
2018-04-10T01:04:17.305Z,14.6
2018-04-10T01:05:17.310Z,14.58
2018-04-10T01:06:17.332Z,14.58
2018-04-10T01:07:17.336Z,14.56
2018-04-10T01:08:17.349Z,14.53
2018-04-10T01:09:17.324Z,14.53
2018-04-10T01:10:17.372Z,14.52
2018-04-10T01:11:17.337Z,14.49
2018-04-10T01:12:17.344Z,14.48
2018-04-10T01:13:17.330Z,14.43
2018-04-10T01:14:17.327Z,14.38
2018-04-10T01:15:17.358Z,14.38
2018-04-10T01:16:17.349Z,14.33
2018-04-10T01:17:17.373Z,14.29
2018-04-10T01:18:17.498Z,14.32
2018-04-10T01:19:17.371Z,14.29
2018-04-10T01:20:17.365Z,14.29
2018-04-10T01:21:17.406Z,14.31
2018-04-10T01:22:17.388Z,14.28
2018-04-10T01:23:17.379Z,14.32
2018-04-10T01:24:17.404Z,14.29
2018-04-10T01:25:17.402Z,14.29
2018-04-10T01:26:17.409Z,14.29
2018-04-10T01:27:17.431Z,14.27
2018-04-10T01:28:17.541Z,14.24
2018-04-10T01:29:17.391Z,14.21
2018-04-10T01:30:17.404Z,14.21
2018-04-10T01:31:17.412Z,14.22
2018-04-10T01:32:17.403Z,14.19
2018-04-10T01:33:17.408Z,14.21
2018-04-10T01:34:17.419Z,14.19
2018-04-10T01:35:17.403Z,14.17
2018-04-10T01:36:17.589Z,14.19
2018-04-10T01:37:17.427Z,14.19
2018-04-10T01:38:17.428Z,14.18
2018-04-10T01:39:17.440Z,14.18
2018-04-10T01:40:17.483Z,14.18
2018-04-10T01:41:17.411Z,14.18
2018-04-10T01:42:17.638Z,14.17
2018-04-10T01:43:17.479Z,14.18
2018-04-10T01:44:17.438Z,14.14
2018-04-10T01:45:17.530Z,14.17
2018-04-10T01:46:17.444Z,14.14
2018-04-10T01:47:17.661Z,14.15
2018-04-10T01:48:17.446Z,14.15
2018-04-10T01:49:17.504Z,14.12
2018-04-10T01:50:17.439Z,14.07
2018-04-10T01:51:17.461Z,14.02
2018-04-10T01:52:17.453Z,14.05
2018-04-10T01:53:17.456Z,14.04
2018-04-10T01:54:17.477Z,14.02
2018-04-10T01:55:17.511Z,14.02
2018-04-10T01:56:17.527Z,14.04
2018-04-10T01:57:17.567Z,14.02
2018-04-10T01:58:17.495Z,14
2018-04-10T01:59:17.488Z,14
2018-04-10T02:00:17.500Z,14
2018-04-10T02:01:17.485Z,14
2018-04-10T02:02:17.505Z,14
2018-04-10T02:03:17.501Z,14
2018-04-10T02:04:17.509Z,14.02
2018-04-10T02:05:17.500Z,14.01
2018-04-10T02:06:17.509Z,14
2018-04-10T02:07:17.504Z,14.01
2018-04-10T02:08:17.615Z,14
2018-04-10T02:09:17.513Z,14
2018-04-10T02:10:17.544Z,14
2018-04-10T02:11:17.535Z,13.97
2018-04-10T02:12:17.586Z,13.96
2018-04-10T02:13:17.519Z,13.94
2018-04-10T02:14:17.539Z,13.94
2018-04-10T02:15:17.546Z,13.96
2018-04-10T02:16:17.564Z,13.93
2018-04-10T02:17:17.559Z,13.96
2018-04-10T02:18:17.579Z,13.96
2018-04-10T02:19:17.587Z,13.94
2018-04-10T02:20:17.556Z,13.96
2018-04-10T02:21:17.554Z,13.93
2018-04-10T02:22:17.572Z,13.96
2018-04-10T02:23:17.578Z,13.94
2018-04-10T02:24:17.559Z,13.96
2018-04-10T02:25:17.566Z,13.96
2018-04-10T02:26:17.567Z,13.96
2018-04-10T02:27:17.606Z,13.96
2018-04-10T02:28:17.584Z,13.93
2018-04-10T02:29:17.587Z,13.96
2018-04-10T02:30:17.569Z,13.97
2018-04-10T02:31:17.589Z,13.96
2018-04-10T02:32:17.587Z,13.97
2018-04-10T02:33:17.592Z,14
2018-04-10T02:34:17.630Z,14
2018-04-10T02:35:17.608Z,13.96
2018-04-10T02:36:17.615Z,13.97
2018-04-10T02:37:17.594Z,13.97
2018-04-10T02:38:17.646Z,13.97
2018-04-10T02:39:17.779Z,13.96
2018-04-10T02:40:17.652Z,13.94
2018-04-10T02:41:17.638Z,13.93
2018-04-10T02:42:17.937Z,13.94
2018-04-10T02:43:17.622Z,13.93
2018-04-10T02:44:17.634Z,13.9
2018-04-10T02:45:17.655Z,13.89
2018-04-10T02:46:17.768Z,13.79
2018-04-10T02:47:17.730Z,13.83
2018-04-10T02:48:17.639Z,13.84
2018-04-10T02:49:17.621Z,13.83
2018-04-10T02:50:17.803Z,13.82
2018-04-10T02:51:17.654Z,13.82
2018-04-10T02:52:17.703Z,13.82
2018-04-10T02:53:17.661Z,13.82
2018-04-10T02:54:17.662Z,13.82
2018-04-10T02:55:17.666Z,13.8
2018-04-10T02:56:17.665Z,13.8
2018-04-10T02:57:17.683Z,13.79
2018-04-10T02:58:17.679Z,13.8
2018-04-10T02:59:17.698Z,13.8
2018-04-10T03:00:17.666Z,13.77
2018-04-10T03:01:17.676Z,13.76
2018-04-10T03:02:17.684Z,13.77
2018-04-10T03:03:17.695Z,13.76
2018-04-10T03:04:17.736Z,13.77
2018-04-10T03:05:17.668Z,13.79
2018-04-10T03:06:17.681Z,13.79
2018-04-10T03:07:17.692Z,13.74
2018-04-10T03:08:17.867Z,13.77
2018-04-10T03:09:17.741Z,13.77
2018-04-10T03:10:17.708Z,13.76
2018-04-10T03:11:17.702Z,13.8
2018-04-10T03:12:17.707Z,13.77
2018-04-10T03:13:17.764Z,13.79
2018-04-10T03:14:17.710Z,13.79
2018-04-10T03:15:17.727Z,13.8
2018-04-10T03:16:17.771Z,13.8
2018-04-10T03:17:17.732Z,13.79
2018-04-10T03:18:17.799Z,13.79
2018-04-10T03:19:17.738Z,13.79
2018-04-10T03:20:17.732Z,13.79
2018-04-10T03:21:17.735Z,13.79
2018-04-10T03:22:17.741Z,13.79
2018-04-10T03:23:17.746Z,13.82
2018-04-10T03:24:17.754Z,13.8
2018-04-10T03:25:17.756Z,13.82
2018-04-10T03:26:17.759Z,13.8
2018-04-10T03:27:17.766Z,13.82
2018-04-10T03:28:17.744Z,13.83
2018-04-10T03:29:17.751Z,13.82
2018-04-10T03:30:17.778Z,13.82
2018-04-10T03:31:17.764Z,13.83
2018-04-10T03:32:17.770Z,13.84
2018-04-10T03:33:17.766Z,13.8
2018-04-10T03:34:17.817Z,13.84
2018-04-10T03:35:17.805Z,13.84
2018-04-10T03:36:17.777Z,13.82
2018-04-10T03:37:17.790Z,13.82
2018-04-10T03:38:17.792Z,13.8
2018-04-10T03:39:17.795Z,13.82
2018-04-10T03:40:17.799Z,13.82
2018-04-10T03:41:17.789Z,13.8
2018-04-10T03:42:17.829Z,13.76
2018-04-10T03:43:17.921Z,13.77
2018-04-10T03:44:17.816Z,13.8
2018-04-10T03:45:17.824Z,13.8
2018-04-10T03:46:17.849Z,13.8
2018-04-10T03:47:17.909Z,13.82
2018-04-10T03:48:17.826Z,13.83
2018-04-10T03:49:17.819Z,13.84
2018-04-10T03:50:17.865Z,13.84
2018-04-10T03:51:17.843Z,13.86
2018-04-10T03:52:17.952Z,13.84
2018-04-10T03:53:17.914Z,13.84
2018-04-10T03:54:17.868Z,13.86
2018-04-10T03:55:17.835Z,13.87
2018-04-10T03:56:17.863Z,13.84
2018-04-10T03:57:17.851Z,13.86
2018-04-10T03:58:17.840Z,13.86
2018-04-10T03:59:17.954Z,13.87
2018-04-10T04:00:17.874Z,13.83
2018-04-10T04:01:17.852Z,13.89
2018-04-10T04:02:17.882Z,13.87
2018-04-10T04:03:17.851Z,13.87
2018-04-10T04:04:17.885Z,13.89
2018-04-10T04:05:17.862Z,13.87
2018-04-10T04:06:17.875Z,13.84
2018-04-10T04:07:17.879Z,13.87
2018-04-10T04:08:17.875Z,13.83
2018-04-10T04:09:17.900Z,13.86
2018-04-10T04:10:17.874Z,13.84
2018-04-10T04:11:17.890Z,13.82
2018-04-10T04:12:17.879Z,13.84
2018-04-10T04:13:17.896Z,13.83
2018-04-10T04:14:17.898Z,13.86
2018-04-10T04:15:17.894Z,13.86
2018-04-10T04:16:17.911Z,13.84
2018-04-10T04:17:17.903Z,13.83
2018-04-10T04:18:17.917Z,13.82
2018-04-10T04:19:17.928Z,13.83
2018-04-10T04:20:17.906Z,13.82
2018-04-10T04:21:17.914Z,13.79
2018-04-10T04:22:17.922Z,13.79
2018-04-10T04:23:18.017Z,13.79
2018-04-10T04:24:17.921Z,13.8
2018-04-10T04:25:17.917Z,13.77
2018-04-10T04:26:17.934Z,13.77
2018-04-10T04:27:17.954Z,13.76
2018-04-10T04:28:17.929Z,13.77
2018-04-10T04:29:17.962Z,13.76
2018-04-10T04:30:18.002Z,13.76
2018-04-10T04:31:18.004Z,13.66
2018-04-10T04:32:18.014Z,13.67
2018-04-10T04:33:17.942Z,13.69
2018-04-10T04:34:18.295Z,13.66
2018-04-10T04:35:18.018Z,13.69
2018-04-10T04:36:17.977Z,13.64
2018-04-10T04:37:17.988Z,13.63
2018-04-10T04:38:17.956Z,13.6
2018-04-10T04:39:18.049Z,13.62
2018-04-10T04:40:17.967Z,13.62
2018-04-10T04:41:18.144Z,13.66
2018-04-10T04:42:18.017Z,13.62
2018-04-10T04:43:17.975Z,13.62
2018-04-10T04:44:18.043Z,13.63
2018-04-10T04:45:17.972Z,13.6
2018-04-10T04:46:17.999Z,13.63
2018-04-10T04:47:18.186Z,13.62
2018-04-10T04:48:18.006Z,13.62
2018-04-10T04:49:18.030Z,13.6
2018-04-10T04:50:18.015Z,13.57
2018-04-10T04:51:18.047Z,13.6
2018-04-10T04:52:18.027Z,13.59
2018-04-10T04:53:18.066Z,13.57
2018-04-10T04:54:18.140Z,13.56
2018-04-10T04:55:18.052Z,13.56
2018-04-10T04:56:18.097Z,13.55
2018-04-10T04:57:18.118Z,13.53
2018-04-10T04:58:18.041Z,13.53
2018-04-10T04:59:18.042Z,13.53
2018-04-10T05:00:18.073Z,13.52
2018-04-10T05:01:18.062Z,13.49
2018-04-10T05:02:18.143Z,13.5
2018-04-10T05:03:18.048Z,13.49
2018-04-10T05:04:18.091Z,13.53
2018-04-10T05:05:18.066Z,13.49
2018-04-10T05:06:18.060Z,13.5
2018-04-10T05:07:18.088Z,13.49
2018-04-10T05:08:18.152Z,13.46
2018-04-10T05:09:18.079Z,13.46
2018-04-10T05:10:18.076Z,13.47
2018-04-10T05:11:18.112Z,13.47
2018-04-10T05:12:18.137Z,13.42
2018-04-10T05:13:18.268Z,13.45
2018-04-10T05:14:18.103Z,13.46
2018-04-10T05:15:18.107Z,13.45
2018-04-10T05:16:18.111Z,13.46
2018-04-10T05:17:18.132Z,13.45
2018-04-10T05:18:18.101Z,13.46
2018-04-10T05:19:18.129Z,13.43
2018-04-10T05:20:18.084Z,13.41
2018-04-10T05:21:18.136Z,13.42
2018-04-10T05:22:18.142Z,13.43
2018-04-10T05:23:18.123Z,13.43
2018-04-10T05:24:18.089Z,13.43
2018-04-10T05:25:18.087Z,13.42
2018-04-10T05:26:18.136Z,13.42
2018-04-10T05:27:18.173Z,13.43
2018-04-10T05:28:18.210Z,13.43
2018-04-10T05:29:18.146Z,13.42
2018-04-10T05:30:18.134Z,13.42
2018-04-10T05:31:18.158Z,13.41
2018-04-10T05:32:18.181Z,13.45
2018-04-10T05:33:18.160Z,13.42
2018-04-10T05:34:18.236Z,13.42
2018-04-10T05:35:18.125Z,13.43
2018-04-10T05:36:18.177Z,13.43
2018-04-10T05:37:18.217Z,13.45
2018-04-10T05:38:18.175Z,13.45
2018-04-10T05:39:18.294Z,13.42
2018-04-10T05:40:18.160Z,13.41
2018-04-10T05:41:18.165Z,13.43
2018-04-10T05:42:18.214Z,13.42
2018-04-10T05:43:18.294Z,13.41
2018-04-10T05:44:18.178Z,13.42
2018-04-10T05:45:18.179Z,13.42
2018-04-10T05:46:18.203Z,13.42
2018-04-10T05:47:18.224Z,13.42
2018-04-10T05:48:18.226Z,13.43
2018-04-10T05:49:18.192Z,13.43
2018-04-10T05:50:18.184Z,13.46
2018-04-10T05:51:18.215Z,13.47
2018-04-10T05:52:18.240Z,13.46
2018-04-10T05:53:18.240Z,13.47
2018-04-10T05:54:18.210Z,13.49
2018-04-10T05:55:18.210Z,13.46
2018-04-10T05:56:18.216Z,13.49
2018-04-10T05:57:18.228Z,13.49
2018-04-10T05:58:18.252Z,13.52
2018-04-10T05:59:18.220Z,13.49
2018-04-10T06:00:18.234Z,13.53
2018-04-10T06:01:18.230Z,13.56
2018-04-10T06:02:18.252Z,13.56
2018-04-10T06:03:18.264Z,13.56
2018-04-10T06:04:18.251Z,13.57
2018-04-10T06:05:18.243Z,13.59
2018-04-10T06:06:18.246Z,13.62
2018-04-10T06:07:18.228Z,13.62
2018-04-10T06:08:18.229Z,13.62
2018-04-10T06:09:18.234Z,13.64
2018-04-10T06:10:18.250Z,13.66
2018-04-10T06:11:18.268Z,13.66
2018-04-10T06:12:18.260Z,13.67
2018-04-10T06:13:18.286Z,13.72
2018-04-10T06:14:18.281Z,13.72
2018-04-10T06:15:18.279Z,13.73
2018-04-10T06:16:18.247Z,13.73
2018-04-10T06:17:18.295Z,13.76
2018-04-10T06:18:18.296Z,13.79
2018-04-10T06:19:18.274Z,13.77
2018-04-10T06:20:18.341Z,13.79
2018-04-10T06:21:18.317Z,13.82
2018-04-10T06:22:18.282Z,13.83
2018-04-10T06:23:18.266Z,13.82
2018-04-10T06:24:18.325Z,13.83
2018-04-10T06:25:18.326Z,13.86
2018-04-10T06:26:18.309Z,13.86
2018-04-10T06:27:18.311Z,13.87
2018-04-10T06:28:18.306Z,13.86
2018-04-10T06:29:18.410Z,13.9
2018-04-10T06:30:18.377Z,13.9
2018-04-10T06:31:18.302Z,13.93
2018-04-10T06:32:18.316Z,13.94
2018-04-10T06:33:18.334Z,13.93
2018-04-10T06:34:18.330Z,13.94
2018-04-10T06:35:18.321Z,13.91
2018-04-10T06:36:18.300Z,13.93
2018-04-10T06:37:18.619Z,13.93
2018-04-10T06:38:18.366Z,13.86
2018-04-10T06:39:18.320Z,13.91
2018-04-10T06:40:18.446Z,13.93
2018-04-10T06:41:18.358Z,13.96
2018-04-10T06:42:18.347Z,13.98
2018-04-10T06:43:18.440Z,14
2018-04-10T06:44:18.383Z,14.01
2018-04-10T06:45:18.396Z,14.02
2018-04-10T06:46:18.413Z,14.05
2018-04-10T06:47:18.354Z,14.1
2018-04-10T06:48:18.361Z,14.08
2018-04-10T06:49:18.458Z,14.08
2018-04-10T06:50:18.451Z,14.04
2018-04-10T06:51:18.383Z,14.04
2018-04-10T06:52:18.377Z,14.05
2018-04-10T06:53:18.434Z,14.04
2018-04-10T06:54:18.394Z,14.07
2018-04-10T06:55:18.393Z,14.11
2018-04-10T06:56:18.494Z,14.12
2018-04-10T06:57:18.397Z,14.12
2018-04-10T06:58:18.425Z,14.15
2018-04-10T06:59:18.386Z,14.17
2018-04-10T07:00:18.397Z,14.19
2018-04-10T07:01:18.387Z,14.19
2018-04-10T07:02:18.501Z,14.22
2018-04-10T07:03:18.444Z,14.24
2018-04-10T07:04:18.406Z,14.22
2018-04-10T07:05:18.477Z,14.17
2018-04-10T07:06:18.427Z,14.12
2018-04-10T07:07:18.426Z,14.15
2018-04-10T07:08:18.411Z,14.15
2018-04-10T07:09:18.441Z,14.18
2018-04-10T07:10:18.474Z,14.22
2018-04-10T07:11:18.412Z,14.14
2018-04-10T07:12:18.439Z,14.14
2018-04-10T07:13:18.600Z,14.15
2018-04-10T07:14:18.448Z,14.19
2018-04-10T07:15:18.444Z,14.21
2018-04-10T07:16:18.425Z,14.25
2018-04-10T07:17:18.441Z,14.31
2018-04-10T07:18:18.451Z,14.35
2018-04-10T07:19:18.473Z,14.38
2018-04-10T07:20:18.465Z,14.43
2018-04-10T07:21:18.515Z,14.45
2018-04-10T07:22:18.486Z,14.48
2018-04-10T07:23:18.471Z,14.52
2018-04-10T07:24:18.469Z,14.56
2018-04-10T07:25:18.477Z,14.62
2018-04-10T07:26:18.480Z,14.64
2018-04-10T07:27:18.464Z,14.64
2018-04-10T07:28:18.524Z,14.73
2018-04-10T07:29:18.490Z,14.74
2018-04-10T07:30:18.516Z,14.81
2018-04-10T07:31:18.505Z,14.87
2018-04-10T07:32:18.585Z,14.9
2018-04-10T07:33:18.499Z,14.95
2018-04-10T07:34:18.513Z,14.97
2018-04-10T07:35:18.510Z,15.01
2018-04-10T07:36:18.510Z,15.05
2018-04-10T07:37:18.522Z,15.08
2018-04-10T07:38:18.566Z,15.08
2018-04-10T07:39:18.498Z,15.11
2018-04-10T07:40:18.558Z,15.11
2018-04-10T07:41:18.575Z,15.09
2018-04-10T07:42:18.543Z,15.11
2018-04-10T07:43:18.532Z,15.11
2018-04-10T07:44:18.517Z,15.14
2018-04-10T07:45:18.694Z,15.14
2018-04-10T07:46:18.605Z,15.19
2018-04-10T07:47:18.580Z,15.19
2018-04-10T07:48:18.527Z,15.25
2018-04-10T07:49:18.536Z,15.31
2018-04-10T07:50:18.622Z,15.34
2018-04-10T07:51:18.553Z,15.32
2018-04-10T07:52:18.562Z,15.39
2018-04-10T07:53:18.561Z,15.41
2018-04-10T07:54:18.573Z,15.45
2018-04-10T07:55:18.557Z,15.47
2018-04-10T07:56:18.579Z,15.41
2018-04-10T07:57:18.590Z,15.21
2018-04-10T07:58:18.596Z,15.15
2018-04-10T07:59:18.605Z,15.17
2018-04-10T08:00:18.611Z,15.25
2018-04-10T08:01:18.576Z,15.31
2018-04-10T08:02:18.567Z,15.34
2018-04-10T08:03:18.815Z,15.39
2018-04-10T08:04:18.659Z,15.43
2018-04-10T08:05:18.662Z,15.46
2018-04-10T08:06:18.599Z,15.47
2018-04-10T08:07:18.673Z,15.39
2018-04-10T08:08:18.598Z,15.36
2018-04-10T08:09:18.642Z,15.43
2018-04-10T08:10:18.610Z,15.36
2018-04-10T08:11:18.659Z,15.32
2018-04-10T08:12:18.604Z,15.38
2018-04-10T08:13:18.630Z,15.45
2018-04-10T08:14:18.607Z,15.5
2018-04-10T08:15:18.612Z,15.52
2018-04-10T08:16:18.634Z,15.56
2018-04-10T08:17:18.622Z,15.63
2018-04-10T08:18:18.627Z,15.66
2018-04-10T08:19:18.625Z,15.66
2018-04-10T08:20:18.622Z,15.62
2018-04-10T08:21:18.634Z,15.62
2018-04-10T08:22:18.760Z,15.64
2018-04-10T08:23:18.651Z,15.71
2018-04-10T08:24:18.649Z,15.71
2018-04-10T08:25:18.639Z,15.77
2018-04-10T08:26:18.687Z,15.78
2018-04-10T08:27:18.653Z,15.85
2018-04-10T08:28:18.647Z,15.84
2018-04-10T08:29:18.689Z,15.8
2018-04-10T08:30:18.680Z,15.9
2018-04-10T08:31:18.688Z,15.9
2018-04-10T08:32:18.673Z,15.94
2018-04-10T08:33:18.690Z,15.92
2018-04-10T08:34:18.691Z,15.81
2018-04-10T08:35:18.680Z,15.88
2018-04-10T08:36:18.862Z,15.9
2018-04-10T08:37:18.694Z,15.95
2018-04-10T08:38:18.736Z,15.98
2018-04-10T08:39:18.773Z,16.02
2018-04-10T08:40:18.698Z,15.98
2018-04-10T08:41:18.746Z,16.01
2018-04-10T08:42:18.686Z,16.01
2018-04-10T08:43:18.704Z,16.02
2018-04-10T08:44:18.710Z,16.04
2018-04-10T08:45:18.703Z,16.07
2018-04-10T08:46:18.709Z,16.12
2018-04-10T08:47:18.709Z,16.19
2018-04-10T08:48:18.710Z,16.24
2018-04-10T08:49:18.713Z,16.21
2018-04-10T08:50:18.838Z,16.28
2018-04-10T08:51:18.719Z,16.36
2018-04-10T08:52:21.540Z,16.29
2018-04-10T08:53:20.696Z,16.35
2018-04-10T08:54:22.620Z,16.43
2018-04-10T08:55:21.148Z,16.42
2018-04-10T08:56:18.779Z,16.35
2018-04-10T08:57:18.762Z,16.35
2018-04-10T08:58:18.746Z,16.31
2018-04-10T08:59:18.774Z,16.35
2018-04-10T09:00:18.780Z,16.4
2018-04-10T09:01:18.766Z,16.42
2018-04-10T09:02:18.783Z,16.45
2018-04-10T09:03:18.800Z,16.52
2018-04-10T09:04:18.781Z,16.64
2018-04-10T09:05:18.820Z,16.66
2018-04-10T09:06:18.771Z,16.56
2018-04-10T09:07:18.798Z,16.64
2018-04-10T09:08:18.775Z,16.67
2018-04-10T09:09:19.056Z,16.73
2018-04-10T09:10:18.812Z,16.86
2018-04-10T09:11:18.774Z,16.84
2018-04-10T09:12:18.885Z,16.9
2018-04-10T09:13:18.820Z,16.95
2018-04-10T09:14:18.801Z,16.91
2018-04-10T09:15:18.845Z,16.92
2018-04-10T09:16:18.950Z,16.95
2018-04-10T09:17:18.829Z,16.99
2018-04-10T09:18:18.823Z,17.01
2018-04-10T09:19:18.815Z,16.97
2018-04-10T09:20:18.818Z,17.05
2018-04-10T09:21:18.826Z,17.04
2018-04-10T09:22:19.069Z,17.04
2018-04-10T09:23:18.862Z,17.09
2018-04-10T09:24:18.831Z,17.19
2018-04-10T09:25:18.828Z,17.21
2018-04-10T09:26:18.846Z,17.07
2018-04-10T09:27:18.912Z,17.09
2018-04-10T09:28:18.839Z,17.09
2018-04-10T09:29:18.839Z,17.15
2018-04-10T09:30:18.885Z,17.23
2018-04-10T09:31:18.847Z,17.26
2018-04-10T09:32:18.874Z,17.29
2018-04-10T09:33:18.850Z,17.29
2018-04-10T09:34:18.891Z,17.32
2018-04-10T09:35:18.907Z,17.3
2018-04-10T09:36:18.893Z,17.32
2018-04-10T09:37:18.883Z,17.3
2018-04-10T09:38:18.982Z,17.3
2018-04-10T09:39:18.861Z,17.37
2018-04-10T09:40:18.880Z,17.33
2018-04-10T09:41:18.890Z,17.22
2018-04-10T09:42:18.899Z,17.26
2018-04-10T09:43:19.226Z,17.27
2018-04-10T09:44:18.921Z,17.35
2018-04-10T09:45:18.902Z,17.36
2018-04-10T09:46:18.983Z,17.4
2018-04-10T09:47:18.998Z,17.46
2018-04-10T09:48:19.042Z,17.5
2018-04-10T09:49:18.916Z,17.47
2018-04-10T09:50:18.928Z,17.47
2018-04-10T09:51:19.000Z,17.43
2018-04-10T09:52:18.922Z,17.39
2018-04-10T09:53:18.922Z,17.44
2018-04-10T09:54:18.925Z,17.42
2018-04-10T09:55:18.935Z,17.47
2018-04-10T09:56:19.072Z,17.5
2018-04-10T09:57:18.925Z,17.44
2018-04-10T09:58:18.943Z,17.5
2018-04-10T09:59:18.928Z,17.67
2018-04-10T10:00:18.953Z,17.7
2018-04-10T10:01:19.022Z,17.7
2018-04-10T10:02:18.976Z,17.69
2018-04-10T10:03:19.074Z,17.69
2018-04-10T10:04:18.996Z,17.8
2018-04-10T10:05:18.971Z,17.88
2018-04-10T10:06:19.018Z,17.89
2018-04-10T10:07:18.933Z,17.77
2018-04-10T10:08:18.964Z,17.81
2018-04-10T10:09:18.946Z,17.88
2018-04-10T10:10:18.957Z,17.74
2018-04-10T10:11:19.036Z,17.82
2018-04-10T10:12:18.968Z,17.84
2018-04-10T10:13:19.030Z,17.87
2018-04-10T10:14:19.030Z,17.84
2018-04-10T10:15:19.036Z,17.89
2018-04-10T10:16:18.996Z,17.91
2018-04-10T10:17:19.001Z,17.89
2018-04-10T10:18:19.120Z,17.89
2018-04-10T10:19:19.003Z,17.95
2018-04-10T10:20:18.993Z,17.91
2018-04-10T10:21:19.002Z,17.89
2018-04-10T10:22:19.026Z,17.81
2018-04-10T10:23:19.030Z,17.8
2018-04-10T10:24:19.031Z,17.88
2018-04-10T10:25:19.029Z,17.92
2018-04-10T10:26:19.015Z,18.01
2018-04-10T10:27:19.019Z,18.01
2018-04-10T10:28:19.066Z,18.15
2018-04-10T10:29:19.029Z,18.15
2018-04-10T10:30:19.014Z,18.12
2018-04-10T10:31:19.070Z,18.17
2018-04-10T10:32:19.038Z,18.32
2018-04-10T10:33:19.067Z,18.39
2018-04-10T10:34:19.045Z,18.42
2018-04-10T10:35:19.047Z,18.43
2018-04-10T10:36:19.046Z,18.36
2018-04-10T10:37:19.059Z,18.47
2018-04-10T10:38:19.084Z,18.43
2018-04-10T10:39:19.072Z,18.44
2018-04-10T10:40:19.084Z,18.37
2018-04-10T10:41:19.272Z,18.42
2018-04-10T10:42:19.055Z,18.57
2018-04-10T10:43:19.093Z,18.54
2018-04-10T10:44:19.072Z,18.57
2018-04-10T10:45:19.093Z,18.72
2018-04-10T10:46:19.083Z,18.6
2018-04-10T10:47:19.081Z,18.74
2018-04-10T10:48:19.099Z,18.78
2018-04-10T10:49:19.092Z,18.8
2018-04-10T10:50:19.102Z,18.85
2018-04-10T10:51:19.100Z,18.78
2018-04-10T10:52:19.216Z,18.81
2018-04-10T10:53:19.131Z,18.64
2018-04-10T10:54:19.123Z,18.66
2018-04-10T10:55:19.109Z,18.66
2018-04-10T10:56:19.111Z,18.53
2018-04-10T10:57:19.160Z,18.6
2018-04-10T10:58:19.147Z,18.63
2018-04-10T10:59:19.139Z,18.61
2018-04-10T11:00:19.160Z,18.52
2018-04-10T11:01:19.154Z,18.57
2018-04-10T11:02:19.120Z,18.54
2018-04-10T11:03:19.141Z,18.74
2018-04-10T11:04:19.120Z,18.78
2018-04-10T11:05:19.168Z,18.89
2018-04-10T11:06:19.158Z,18.85
2018-04-10T11:07:19.174Z,18.77
2018-04-10T11:08:19.132Z,18.95
2018-04-10T11:09:19.208Z,18.8
2018-04-10T11:10:19.209Z,18.67
2018-04-10T11:11:19.268Z,18.84
2018-04-10T11:12:19.209Z,18.85
2018-04-10T11:13:19.148Z,18.8
2018-04-10T11:14:19.171Z,18.89
2018-04-10T11:15:19.197Z,18.88
2018-04-10T11:16:19.186Z,18.84
2018-04-10T11:17:19.194Z,18.99
2018-04-10T11:18:19.215Z,19.05
2018-04-10T11:19:19.186Z,18.89
2018-04-10T11:20:19.202Z,19.03
2018-04-10T11:21:19.191Z,18.94
2018-04-10T11:22:19.171Z,18.92
2018-04-10T11:23:19.174Z,18.87
2018-04-10T11:24:19.196Z,18.92
2018-04-10T11:25:19.225Z,19.02
2018-04-10T11:26:19.195Z,19.22
2018-04-10T11:27:19.261Z,19.36
2018-04-10T11:28:19.208Z,19.4
2018-04-10T11:29:19.212Z,19.33
2018-04-10T11:30:19.213Z,19.33
2018-04-10T11:31:19.225Z,19.27
2018-04-10T11:32:19.211Z,19.23
2018-04-10T11:33:19.216Z,19.32
2018-04-10T11:34:19.222Z,19.39
2018-04-10T11:35:19.240Z,19.33
2018-04-10T11:36:19.227Z,19.37
2018-04-10T11:37:19.227Z,19.5
2018-04-10T11:38:19.237Z,19.58
2018-04-10T11:39:19.233Z,19.46
2018-04-10T11:40:19.266Z,19.46
2018-04-10T11:41:19.271Z,19.53
2018-04-10T11:42:19.244Z,19.68
2018-04-10T11:43:19.258Z,19.62
2018-04-10T11:44:19.264Z,19.57
2018-04-10T11:45:19.252Z,19.5
2018-04-10T11:46:19.282Z,19.57
2018-04-10T11:47:19.288Z,19.71
2018-04-10T11:48:19.302Z,19.74
2018-04-10T11:49:19.292Z,19.77
2018-04-10T11:50:19.402Z,19.7
2018-04-10T11:51:19.427Z,19.77
2018-04-10T11:52:19.289Z,19.84
2018-04-10T11:53:19.322Z,19.67
2018-04-10T11:54:19.306Z,19.71
2018-04-10T11:55:19.300Z,19.6
2018-04-10T11:56:19.322Z,19.64
2018-04-10T11:57:19.300Z,19.78
2018-04-10T11:58:19.311Z,19.93
2018-04-10T11:59:19.693Z,19.91
2018-04-10T12:00:19.343Z,19.93
2018-04-10T12:01:19.332Z,19.95
2018-04-10T12:02:19.419Z,19.95
2018-04-10T12:03:19.489Z,20.05
2018-04-10T12:04:19.335Z,20.05
2018-04-10T12:05:19.318Z,20.01
2018-04-10T12:06:19.302Z,20.04
2018-04-10T12:07:19.322Z,20.09
2018-04-10T12:08:19.339Z,20.04
2018-04-10T12:09:19.353Z,20.04
2018-04-10T12:10:19.340Z,19.99
2018-04-10T12:11:19.343Z,20.09
2018-04-10T12:12:19.354Z,20.26
2018-04-10T12:13:19.373Z,20.3
2018-04-10T12:14:19.364Z,20.19
2018-04-10T12:15:19.341Z,20.32
2018-04-10T12:16:19.343Z,20.37
2018-04-10T12:17:19.347Z,20.41
2018-04-10T12:18:19.354Z,20.43
2018-04-10T12:19:19.489Z,20.29
2018-04-10T12:20:19.353Z,20.36
2018-04-10T12:21:19.447Z,20.4
2018-04-10T12:22:19.338Z,20.34
2018-04-10T12:23:19.409Z,20.41
2018-04-10T12:24:19.492Z,20.44
2018-04-10T12:25:19.362Z,20.37
2018-04-10T12:26:19.365Z,20.46
2018-04-10T12:27:19.395Z,20.47
2018-04-10T12:28:19.392Z,20.5
2018-04-10T12:29:19.424Z,20.52
2018-04-10T12:30:19.415Z,20.6
2018-04-10T12:31:19.423Z,20.6
2018-04-10T12:32:19.376Z,20.67
2018-04-10T12:33:19.425Z,20.71
2018-04-10T12:34:19.410Z,20.77
2018-04-10T12:35:19.404Z,20.62
2018-04-10T12:36:19.482Z,20.58
2018-04-10T12:37:19.414Z,20.58
2018-04-10T12:38:19.451Z,20.52
2018-04-10T12:39:19.481Z,20.47
2018-04-10T12:40:19.407Z,20.5
2018-04-10T12:41:19.447Z,20.57
2018-04-10T12:42:19.436Z,20.57
2018-04-10T12:43:19.417Z,20.61
2018-04-10T12:44:19.469Z,20.64
2018-04-10T12:45:19.453Z,20.57
2018-04-10T12:46:19.463Z,20.44
2018-04-10T12:47:19.459Z,20.41
2018-04-10T12:48:19.444Z,20.52
2018-04-10T12:49:19.473Z,20.52
2018-04-10T12:50:19.482Z,20.57
2018-04-10T12:51:19.548Z,20.48
2018-04-10T12:52:19.571Z,20.43
2018-04-10T12:53:19.582Z,20.54
2018-04-10T12:54:19.483Z,20.7
2018-04-10T12:55:19.471Z,20.75
2018-04-10T12:56:19.543Z,20.71